sensor_id;sensor_type;location;lat;lon;timestamp;temperature;humidity
41318;DHT22;27067;51.554;7.026;2022-07-29T00:01:46;22.10;77.60
41318;DHT22;27067;51.554;7.026;2022-07-29T00:04:12;22.10;77.10
41318;DHT22;27067;51.554;7.026;2022-07-29T00:06:37;22.10;77.70
41318;DHT22;27067;51.554;7.026;2022-07-29T00:09:03;22.10;77.50
41318;DHT22;27067;51.554;7.026;2022-07-29T00:11:29;22.10;77.60
41318;DHT22;27067;51.554;7.026;2022-07-29T00:13:54;22.10;77.00
41318;DHT22;27067;51.554;7.026;2022-07-29T00:16:20;22.10;77.60
41318;DHT22;27067;51.554;7.026;2022-07-29T00:18:45;22.10;77.60
41318;DHT22;27067;51.554;7.026;2022-07-29T00:21:11;22.10;77.50
41318;DHT22;27067;51.554;7.026;2022-07-29T00:23:36;22.10;76.90
41318;DHT22;27067;51.554;7.026;2022-07-29T00:26:02;22.10;77.50
41318;DHT22;27067;51.554;7.026;2022-07-29T00:28:27;22.10;77.50
41318;DHT22;27067;51.554;7.026;2022-07-29T00:30:53;22.10;77.70
41318;DHT22;27067;51.554;7.026;2022-07-29T00:33:18;22.00;77.30
41318;DHT22;27067;51.554;7.026;2022-07-29T00:35:44;22.10;77.90
41318;DHT22;27067;51.554;7.026;2022-07-29T00:38:10;22.00;78.00
41318;DHT22;27067;51.554;7.026;2022-07-29T00:40:36;22.10;78.10
41318;DHT22;27067;51.554;7.026;2022-07-29T00:43:01;22.00;78.10
41318;DHT22;27067;51.554;7.026;2022-07-29T00:45:27;22.10;77.60
41318;DHT22;27067;51.554;7.026;2022-07-29T00:47:53;22.00;78.00
41318;DHT22;27067;51.554;7.026;2022-07-29T00:50:18;22.00;78.00
41318;DHT22;27067;51.554;7.026;2022-07-29T00:52:44;22.10;78.00
41318;DHT22;27067;51.554;7.026;2022-07-29T00:55:11;22.10;77.40
41318;DHT22;27067;51.554;7.026;2022-07-29T00:57:37;22.10;77.90
41318;DHT22;27067;51.554;7.026;2022-07-29T01:00:04;22.00;77.70
41318;DHT22;27067;51.554;7.026;2022-07-29T01:02:30;22.00;77.80
41318;DHT22;27067;51.554;7.026;2022-07-29T01:04:55;22.00;77.20
41318;DHT22;27067;51.554;7.026;2022-07-29T01:07:22;22.00;77.70
41318;DHT22;27067;51.554;7.026;2022-07-29T01:09:48;22.10;77.60
41318;DHT22;27067;51.554;7.026;2022-07-29T01:12:15;22.10;77.60
41318;DHT22;27067;51.554;7.026;2022-07-29T01:14:42;22.10;77.10
41318;DHT22;27067;51.554;7.026;2022-07-29T01:17:12;22.00;77.60
41318;DHT22;27067;51.554;7.026;2022-07-29T01:22:18;22.10;77.70
41318;DHT22;27067;51.554;7.026;2022-07-29T01:30:05;22.10;77.50
41318;DHT22;27067;51.554;7.026;2022-07-29T01:32:31;23.20;78.20
41318;DHT22;27067;51.554;7.026;2022-07-29T01:34:59;22.10;77.00
41318;DHT22;27067;51.554;7.026;2022-07-29T01:39:54;22.10;77.50
41318;DHT22;27067;51.554;7.026;2022-07-29T01:47:40;22.10;77.40
41318;DHT22;27067;51.554;7.026;2022-07-29T01:50:10;22.10;77.20
41318;DHT22;27067;51.554;7.026;2022-07-29T01:52:39;22.10;76.80
41318;DHT22;27067;51.554;7.026;2022-07-29T01:55:11;22.10;76.10
41318;DHT22;27067;51.554;7.026;2022-07-29T01:57:38;22.10;76.50
41318;DHT22;27067;51.554;7.026;2022-07-29T02:00:05;22.10;76.90
41318;DHT22;27067;51.554;7.026;2022-07-29T02:02:31;22.10;77.10
41318;DHT22;27067;51.554;7.026;2022-07-29T02:04:57;22.10;76.80
41318;DHT22;27067;51.554;7.026;2022-07-29T02:07:24;22.10;77.40
41318;DHT22;27067;51.554;7.026;2022-07-29T02:09:51;22.10;77.30
41318;DHT22;27067;51.554;7.026;2022-07-29T02:12:18;22.10;77.40
41318;DHT22;27067;51.554;7.026;2022-07-29T02:14:44;22.10;76.90
41318;DHT22;27067;51.554;7.026;2022-07-29T02:17:11;22.10;77.40
41318;DHT22;27067;51.554;7.026;2022-07-29T02:19:37;22.10;77.40
41318;DHT22;27067;51.554;7.026;2022-07-29T02:22:04;22.10;77.30
41318;DHT22;27067;51.554;7.026;2022-07-29T02:24:30;22.10;76.80
41318;DHT22;27067;51.554;7.026;2022-07-29T02:26:56;22.10;77.20
41318;DHT22;27067;51.554;7.026;2022-07-29T02:29:23;22.10;77.20
41318;DHT22;27067;51.554;7.026;2022-07-29T02:31:50;22.10;77.10
41318;DHT22;27067;51.554;7.026;2022-07-29T02:34:17;22.10;76.60
41318;DHT22;27067;51.554;7.026;2022-07-29T02:36:42;22.10;77.10
41318;DHT22;27067;51.554;7.026;2022-07-29T02:39:09;22.10;77.10
41318;DHT22;27067;51.554;7.026;2022-07-29T02:41:52;22.10;77.00
41318;DHT22;27067;51.554;7.026;2022-07-29T02:44:19;22.10;76.40
41318;DHT22;27067;51.554;7.026;2022-07-29T02:51:57;22.10;76.90
41318;DHT22;27067;51.554;7.026;2022-07-29T02:54:26;22.10;76.30
41318;DHT22;27067;51.554;7.026;2022-07-29T02:56:52;22.10;76.80
41318;DHT22;27067;51.554;7.026;2022-07-29T02:59:22;22.10;76.80
41318;DHT22;27067;51.554;7.026;2022-07-29T03:01:48;22.10;76.70
41318;DHT22;27067;51.554;7.026;2022-07-29T03:04:14;22.10;76.10
41318;DHT22;27067;51.554;7.026;2022-07-29T03:06:40;22.10;76.70
41318;DHT22;27067;51.554;7.026;2022-07-29T03:09:07;22.10;76.70
41318;DHT22;27067;51.554;7.026;2022-07-29T03:11:33;22.10;76.60
41318;DHT22;27067;51.554;7.026;2022-07-29T03:13:59;22.10;76.10
41318;DHT22;27067;51.554;7.026;2022-07-29T03:16:25;22.10;76.60
41318;DHT22;27067;51.554;7.026;2022-07-29T03:18:50;22.10;76.70
41318;DHT22;27067;51.554;7.026;2022-07-29T03:21:16;22.10;76.70
41318;DHT22;27067;51.554;7.026;2022-07-29T03:23:45;22.10;76.10
41318;DHT22;27067;51.554;7.026;2022-07-29T03:26:11;22.10;76.70
41318;DHT22;27067;51.554;7.026;2022-07-29T03:28:38;22.10;76.70
41318;DHT22;27067;51.554;7.026;2022-07-29T03:31:03;22.10;76.70
41318;DHT22;27067;51.554;7.026;2022-07-29T03:33:29;22.10;76.10
41318;DHT22;27067;51.554;7.026;2022-07-29T03:35:55;22.10;76.70
41318;DHT22;27067;51.554;7.026;2022-07-29T03:38:21;22.10;76.70
41318;DHT22;27067;51.554;7.026;2022-07-29T03:40:58;22.10;76.70
41318;DHT22;27067;51.554;7.026;2022-07-29T03:43:26;22.10;76.10
41318;DHT22;27067;51.554;7.026;2022-07-29T03:45:54;22.10;76.60
41318;DHT22;27067;51.554;7.026;2022-07-29T03:48:20;22.10;76.70
41318;DHT22;27067;51.554;7.026;2022-07-29T03:50:46;22.10;76.70
41318;DHT22;27067;51.554;7.026;2022-07-29T03:53:12;22.10;76.30
41318;DHT22;27067;51.554;7.026;2022-07-29T03:55:41;22.10;76.90
41318;DHT22;27067;51.554;7.026;2022-07-29T03:58:08;22.10;76.80
41318;DHT22;27067;51.554;7.026;2022-07-29T04:00:34;22.10;76.80
41318;DHT22;27067;51.554;7.026;2022-07-29T04:03:00;22.10;77.00
41318;DHT22;27067;51.554;7.026;2022-07-29T04:05:26;22.10;76.40
41318;DHT22;27067;51.554;7.026;2022-07-29T04:07:52;22.10;76.90
41318;DHT22;27067;51.554;7.026;2022-07-29T04:10:17;22.10;76.90
41318;DHT22;27067;51.554;7.026;2022-07-29T04:12:44;22.10;76.90
41318;DHT22;27067;51.554;7.026;2022-07-29T04:15:10;22.10;76.30
41318;DHT22;27067;51.554;7.026;2022-07-29T04:17:35;22.10;76.90
41318;DHT22;27067;51.554;7.026;2022-07-29T04:20:01;22.10;76.80
41318;DHT22;27067;51.554;7.026;2022-07-29T04:22:26;22.10;76.90
41318;DHT22;27067;51.554;7.026;2022-07-29T04:24:52;22.10;76.10
41318;DHT22;27067;51.554;7.026;2022-07-29T04:27:17;22.20;76.50
41318;DHT22;27067;51.554;7.026;2022-07-29T04:29:43;22.20;76.10
41318;DHT22;27067;51.554;7.026;2022-07-29T04:32:08;22.20;76.00
41318;DHT22;27067;51.554;7.026;2022-07-29T04:34:34;22.20;75.40
41318;DHT22;27067;51.554;7.026;2022-07-29T04:36:59;22.20;75.90
41318;DHT22;27067;51.554;7.026;2022-07-29T04:39:25;22.10;75.80
41318;DHT22;27067;51.554;7.026;2022-07-29T04:41:51;22.10;75.70
41318;DHT22;27067;51.554;7.026;2022-07-29T04:44:16;22.10;75.70
41318;DHT22;27067;51.554;7.026;2022-07-29T04:46:42;22.10;75.70
41318;DHT22;27067;51.554;7.026;2022-07-29T04:49:07;22.10;75.70
41318;DHT22;27067;51.554;7.026;2022-07-29T04:51:33;22.10;75.70
41318;DHT22;27067;51.554;7.026;2022-07-29T04:53:59;22.10;75.20
41318;DHT22;27067;51.554;7.026;2022-07-29T04:56:24;22.10;75.80
41318;DHT22;27067;51.554;7.026;2022-07-29T04:58:50;22.10;75.80
41318;DHT22;27067;51.554;7.026;2022-07-29T05:01:15;22.00;75.70
41318;DHT22;27067;51.554;7.026;2022-07-29T05:03:41;22.00;75.20
41318;DHT22;27067;51.554;7.026;2022-07-29T05:06:06;22.10;75.80
41318;DHT22;27067;51.554;7.026;2022-07-29T05:08:32;22.10;75.90
41318;DHT22;27067;51.554;7.026;2022-07-29T05:10:57;22.10;75.80
41318;DHT22;27067;51.554;7.026;2022-07-29T05:13:23;22.10;75.30
41318;DHT22;27067;51.554;7.026;2022-07-29T05:15:48;22.00;75.80
41318;DHT22;27067;51.554;7.026;2022-07-29T05:18:14;22.00;75.80
41318;DHT22;27067;51.554;7.026;2022-07-29T05:20:39;22.10;75.90
41318;DHT22;27067;51.554;7.026;2022-07-29T05:23:05;22.10;75.90
41318;DHT22;27067;51.554;7.026;2022-07-29T05:25:30;23.20;76.60
41318;DHT22;27067;51.554;7.026;2022-07-29T05:27:56;23.60;76.80
41318;DHT22;27067;51.554;7.026;2022-07-29T05:30:22;22.00;75.90
41318;DHT22;27067;51.554;7.026;2022-07-29T05:32:47;22.00;76.00
41318;DHT22;27067;51.554;7.026;2022-07-29T05:35:13;22.00;75.80
41318;DHT22;27067;51.554;7.026;2022-07-29T05:37:39;22.00;76.50
41318;DHT22;27067;51.554;7.026;2022-07-29T05:40:05;22.10;78.50
41318;DHT22;27067;51.554;7.026;2022-07-29T05:42:30;22.10;81.10
41318;DHT22;27067;51.554;7.026;2022-07-29T05:44:56;22.20;80.90
41318;DHT22;27067;51.554;7.026;2022-07-29T05:47:22;22.20;81.50
41318;DHT22;27067;51.554;7.026;2022-07-29T05:49:47;22.20;81.50
41318;DHT22;27067;51.554;7.026;2022-07-29T05:52:13;22.20;81.20
41318;DHT22;27067;51.554;7.026;2022-07-29T05:54:39;22.20;80.30
41318;DHT22;27067;51.554;7.026;2022-07-29T05:57:04;22.20;80.50
41318;DHT22;27067;51.554;7.026;2022-07-29T05:59:30;22.20;80.00
41318;DHT22;27067;51.554;7.026;2022-07-29T06:01:56;22.20;79.80
41318;DHT22;27067;51.554;7.026;2022-07-29T06:04:22;22.20;78.60
41318;DHT22;27067;51.554;7.026;2022-07-29T06:06:48;22.10;79.00
41318;DHT22;27067;51.554;7.026;2022-07-29T06:09:13;22.10;78.80
41318;DHT22;27067;51.554;7.026;2022-07-29T06:11:40;22.10;78.40
41318;DHT22;27067;51.554;7.026;2022-07-29T06:14:05;22.10;77.50
41318;DHT22;27067;51.554;7.026;2022-07-29T06:16:31;22.10;78.00
41318;DHT22;27067;51.554;7.026;2022-07-29T06:18:56;22.10;77.80
41318;DHT22;27067;51.554;7.026;2022-07-29T06:21:22;22.10;77.60
41318;DHT22;27067;51.554;7.026;2022-07-29T06:23:47;22.10;76.80
41318;DHT22;27067;51.554;7.026;2022-07-29T06:26:13;22.10;77.20
41318;DHT22;27067;51.554;7.026;2022-07-29T06:28:38;22.10;77.50
41318;DHT22;27067;51.554;7.026;2022-07-29T06:31:04;22.10;76.90
41318;DHT22;27067;51.554;7.026;2022-07-29T06:33:30;22.10;76.30
41318;DHT22;27067;51.554;7.026;2022-07-29T06:35:56;22.10;76.80
41318;DHT22;27067;51.554;7.026;2022-07-29T06:38:21;22.10;76.80
41318;DHT22;27067;51.554;7.026;2022-07-29T06:40:47;22.20;76.80
41318;DHT22;27067;51.554;7.026;2022-07-29T06:43:35;22.20;76.30
41318;DHT22;27067;51.554;7.026;2022-07-29T06:46:03;22.20;76.80
41318;DHT22;27067;51.554;7.026;2022-07-29T06:48:29;22.20;76.80
41318;DHT22;27067;51.554;7.026;2022-07-29T06:50:55;22.20;76.90
41318;DHT22;27067;51.554;7.026;2022-07-29T06:53:20;22.20;76.00
41318;DHT22;27067;51.554;7.026;2022-07-29T06:55:46;22.20;76.50
41318;DHT22;27067;51.554;7.026;2022-07-29T06:58:12;22.20;76.50
41318;DHT22;27067;51.554;7.026;2022-07-29T07:00:39;22.30;77.80
41318;DHT22;27067;51.554;7.026;2022-07-29T07:03:04;22.30;78.10
41318;DHT22;27067;51.554;7.026;2022-07-29T07:05:30;22.30;78.70
41318;DHT22;27067;51.554;7.026;2022-07-29T07:07:55;22.30;79.20
41318;DHT22;27067;51.554;7.026;2022-07-29T07:10:21;22.20;79.40
41318;DHT22;27067;51.554;7.026;2022-07-29T07:12:46;22.20;78.90
41318;DHT22;27067;51.554;7.026;2022-07-29T07:15:12;22.20;78.20
41318;DHT22;27067;51.554;7.026;2022-07-29T07:17:38;22.10;78.50
41318;DHT22;27067;51.554;7.026;2022-07-29T07:20:04;22.20;78.60
41318;DHT22;27067;51.554;7.026;2022-07-29T07:22:30;22.20;78.40
41318;DHT22;27067;51.554;7.026;2022-07-29T07:24:55;22.10;77.90
41318;DHT22;27067;51.554;7.026;2022-07-29T07:27:21;22.10;78.30
41318;DHT22;27067;51.554;7.026;2022-07-29T07:29:46;22.10;78.10
41318;DHT22;27067;51.554;7.026;2022-07-29T07:32:12;22.10;78.00
41318;DHT22;27067;51.554;7.026;2022-07-29T07:34:38;22.10;77.20
41318;DHT22;27067;51.554;7.026;2022-07-29T07:37:04;22.10;77.70
41318;DHT22;27067;51.554;7.026;2022-07-29T07:39:30;22.10;77.70
41318;DHT22;27067;51.554;7.026;2022-07-29T07:41:55;22.10;77.70
41318;DHT22;27067;51.554;7.026;2022-07-29T07:44:21;22.10;77.00
41318;DHT22;27067;51.554;7.026;2022-07-29T07:46:46;22.20;77.40
41318;DHT22;27067;51.554;7.026;2022-07-29T07:49:12;22.10;77.50
41318;DHT22;27067;51.554;7.026;2022-07-29T07:51:37;22.10;77.30
41318;DHT22;27067;51.554;7.026;2022-07-29T07:54:03;22.10;77.30
41318;DHT22;27067;51.554;7.026;2022-07-29T07:56:29;22.10;77.30
41318;DHT22;27067;51.554;7.026;2022-07-29T07:58:54;22.10;77.30
41318;DHT22;27067;51.554;7.026;2022-07-29T08:01:20;22.10;77.30
41318;DHT22;27067;51.554;7.026;2022-07-29T08:03:48;22.10;76.80
41318;DHT22;27067;51.554;7.026;2022-07-29T08:06:14;22.10;77.40
41318;DHT22;27067;51.554;7.026;2022-07-29T08:08:39;22.10;77.30
41318;DHT22;27067;51.554;7.026;2022-07-29T08:11:05;22.10;77.10
41318;DHT22;27067;51.554;7.026;2022-07-29T08:13:31;22.00;76.30
41318;DHT22;27067;51.554;7.026;2022-07-29T08:15:58;22.00;76.80
41318;DHT22;27067;51.554;7.026;2022-07-29T08:18:25;22.10;76.70
41318;DHT22;27067;51.554;7.026;2022-07-29T08:20:51;22.10;76.60
41318;DHT22;27067;51.554;7.026;2022-07-29T08:23:17;22.00;75.70
41318;DHT22;27067;51.554;7.026;2022-07-29T08:25:44;22.00;76.30
41318;DHT22;27067;51.554;7.026;2022-07-29T08:28:09;22.10;76.20
41318;DHT22;27067;51.554;7.026;2022-07-29T08:30:35;22.10;76.20
41318;DHT22;27067;51.554;7.026;2022-07-29T08:33:01;22.10;76.10
41318;DHT22;27067;51.554;7.026;2022-07-29T08:35:26;22.10;75.50
41318;DHT22;27067;51.554;7.026;2022-07-29T08:37:52;22.20;76.00
41318;DHT22;27067;51.554;7.026;2022-07-29T08:40:18;22.20;76.00
41318;DHT22;27067;51.554;7.026;2022-07-29T08:42:45;22.20;76.00
41318;DHT22;27067;51.554;7.026;2022-07-29T08:45:10;22.10;75.60
41318;DHT22;27067;51.554;7.026;2022-07-29T08:47:36;22.20;76.20
41318;DHT22;27067;51.554;7.026;2022-07-29T08:50:05;22.10;76.20
41318;DHT22;27067;51.554;7.026;2022-07-29T08:52:30;22.10;76.10
41318;DHT22;27067;51.554;7.026;2022-07-29T08:54:57;22.20;75.70
41318;DHT22;27067;51.554;7.026;2022-07-29T08:57:24;22.10;76.20
41318;DHT22;27067;51.554;7.026;2022-07-29T08:59:49;22.10;76.20
41318;DHT22;27067;51.554;7.026;2022-07-29T09:02:20;22.20;76.30
41318;DHT22;27067;51.554;7.026;2022-07-29T09:04:46;22.20;75.70
41318;DHT22;27067;51.554;7.026;2022-07-29T09:07:14;22.20;76.30
41318;DHT22;27067;51.554;7.026;2022-07-29T09:09:40;22.20;75.80
41318;DHT22;27067;51.554;7.026;2022-07-29T09:12:06;22.20;76.40
41318;DHT22;27067;51.554;7.026;2022-07-29T09:14:33;22.20;75.90
41318;DHT22;27067;51.554;7.026;2022-07-29T09:16:59;22.20;76.50
41318;DHT22;27067;51.554;7.026;2022-07-29T09:19:28;22.20;76.50
41318;DHT22;27067;51.554;7.026;2022-07-29T09:21:55;22.30;76.60
41318;DHT22;27067;51.554;7.026;2022-07-29T09:24:24;22.30;76.10
41318;DHT22;27067;51.554;7.026;2022-07-29T09:26:50;22.20;76.60
41318;DHT22;27067;51.554;7.026;2022-07-29T09:29:17;22.20;76.50
41318;DHT22;27067;51.554;7.026;2022-07-29T09:31:44;22.20;76.50
41318;DHT22;27067;51.554;7.026;2022-07-29T09:34:10;22.20;76.00
41318;DHT22;27067;51.554;7.026;2022-07-29T09:36:46;22.20;76.50
41318;DHT22;27067;51.554;7.026;2022-07-29T09:39:13;22.20;76.50
41318;DHT22;27067;51.554;7.026;2022-07-29T09:41:52;22.30;76.50
41318;DHT22;27067;51.554;7.026;2022-07-29T09:44:21;22.20;76.00
41318;DHT22;27067;51.554;7.026;2022-07-29T09:46:57;22.20;76.60
41318;DHT22;27067;51.554;7.026;2022-07-29T09:49:23;22.20;76.70
41318;DHT22;27067;51.554;7.026;2022-07-29T09:51:59;22.20;76.60
41318;DHT22;27067;51.554;7.026;2022-07-29T09:54:24;22.20;76.10
41318;DHT22;27067;51.554;7.026;2022-07-29T09:56:53;22.20;76.70
41318;DHT22;27067;51.554;7.026;2022-07-29T09:59:19;22.20;76.70
41318;DHT22;27067;51.554;7.026;2022-07-29T10:01:48;22.20;76.70
41318;DHT22;27067;51.554;7.026;2022-07-29T10:04:14;22.20;76.20
41318;DHT22;27067;51.554;7.026;2022-07-29T10:06:59;22.20;76.80
41318;DHT22;27067;51.554;7.026;2022-07-29T10:09:25;22.20;76.70
41318;DHT22;27067;51.554;7.026;2022-07-29T10:12:10;22.20;76.70
41318;DHT22;27067;51.554;7.026;2022-07-29T10:14:36;22.20;76.30
41318;DHT22;27067;51.554;7.026;2022-07-29T10:17:03;22.20;76.80
41318;DHT22;27067;51.554;7.026;2022-07-29T10:19:29;22.20;76.90
41318;DHT22;27067;51.554;7.026;2022-07-29T10:21:56;22.20;77.00
41318;DHT22;27067;51.554;7.026;2022-07-29T10:24:22;22.20;76.60
41318;DHT22;27067;51.554;7.026;2022-07-29T10:26:49;22.20;77.20
41318;DHT22;27067;51.554;7.026;2022-07-29T10:29:14;22.20;77.20
41318;DHT22;27067;51.554;7.026;2022-07-29T10:34:34;22.20;76.70
41318;DHT22;27067;51.554;7.026;2022-07-29T10:37:12;22.20;77.30
41318;DHT22;27067;51.554;7.026;2022-07-29T10:42:24;22.20;77.30
41318;DHT22;27067;51.554;7.026;2022-07-29T10:44:51;22.20;76.90
41318;DHT22;27067;51.554;7.026;2022-07-29T10:47:24;22.20;77.50
41318;DHT22;27067;51.554;7.026;2022-07-29T10:49:59;22.20;77.50
41318;DHT22;27067;51.554;7.026;2022-07-29T10:52:25;22.20;77.50
41318;DHT22;27067;51.554;7.026;2022-07-29T10:55:28;22.20;77.10
41318;DHT22;27067;51.554;7.026;2022-07-29T11:00:51;22.20;77.70
41318;DHT22;27067;51.554;7.026;2022-07-29T11:03:59;22.20;77.80
41318;DHT22;27067;51.554;7.026;2022-07-29T11:06:05;22.20;77.80
41318;DHT22;27067;51.554;7.026;2022-07-29T11:08:31;22.20;77.90
41318;DHT22;27067;51.554;7.026;2022-07-29T11:16:09;22.20;77.80
41318;DHT22;27067;51.554;7.026;2022-07-29T11:18:34;22.20;77.90
41318;DHT22;27067;51.554;7.026;2022-07-29T11:21:00;22.20;78.00
41318;DHT22;27067;51.554;7.026;2022-07-29T11:28:36;22.20;78.10
41318;DHT22;27067;51.554;7.026;2022-07-29T11:31:04;22.20;78.20
41318;DHT22;27067;51.554;7.026;2022-07-29T11:33:31;22.20;77.70
41318;DHT22;27067;51.554;7.026;2022-07-29T11:36:13;22.20;78.20
41318;DHT22;27067;51.554;7.026;2022-07-29T11:38:39;22.20;78.30
41318;DHT22;27067;51.554;7.026;2022-07-29T11:43:52;22.20;78.70
41318;DHT22;27067;51.554;7.026;2022-07-29T11:49:02;22.30;80.50
41318;DHT22;27067;51.554;7.026;2022-07-29T11:51:29;22.20;81.40
41318;DHT22;27067;51.554;7.026;2022-07-29T11:53:54;22.30;81.30
41318;DHT22;27067;51.554;7.026;2022-07-29T11:56:21;22.30;81.80
41318;DHT22;27067;51.554;7.026;2022-07-29T11:58:46;22.30;81.70
41318;DHT22;27067;51.554;7.026;2022-07-29T12:01:13;22.30;82.40
41318;DHT22;27067;51.554;7.026;2022-07-29T12:03:38;22.30;82.20
41318;DHT22;27067;51.554;7.026;2022-07-29T12:06:10;22.30;82.70
41318;DHT22;27067;51.554;7.026;2022-07-29T12:08:41;22.30;82.50
41318;DHT22;27067;51.554;7.026;2022-07-29T12:11:14;22.30;82.50
41318;DHT22;27067;51.554;7.026;2022-07-29T12:13:40;22.30;81.90
41318;DHT22;27067;51.554;7.026;2022-07-29T12:16:06;22.30;82.40
41318;DHT22;27067;51.554;7.026;2022-07-29T12:18:31;22.30;82.40
41318;DHT22;27067;51.554;7.026;2022-07-29T12:20:57;22.30;82.30
41318;DHT22;27067;51.554;7.026;2022-07-29T12:23:23;22.30;81.60
41318;DHT22;27067;51.554;7.026;2022-07-29T12:25:49;22.30;82.10
41318;DHT22;27067;51.554;7.026;2022-07-29T12:28:15;22.30;82.10
41318;DHT22;27067;51.554;7.026;2022-07-29T12:30:43;22.20;82.00
41318;DHT22;27067;51.554;7.026;2022-07-29T12:33:14;22.30;82.10
41318;DHT22;27067;51.554;7.026;2022-07-29T12:35:40;22.30;81.50
41318;DHT22;27067;51.554;7.026;2022-07-29T12:38:06;22.30;82.00
41318;DHT22;27067;51.554;7.026;2022-07-29T12:40:34;22.30;81.90
41318;DHT22;27067;51.554;7.026;2022-07-29T12:45:37;22.30;81.50
41318;DHT22;27067;51.554;7.026;2022-07-29T12:48:03;22.30;82.00
41318;DHT22;27067;51.554;7.026;2022-07-29T12:50:29;22.30;82.00
41318;DHT22;27067;51.554;7.026;2022-07-29T12:53:07;22.30;81.90
41318;DHT22;27067;51.554;7.026;2022-07-29T12:55:43;22.30;81.50
41318;DHT22;27067;51.554;7.026;2022-07-29T12:58:09;20.90;81.40
41318;DHT22;27067;51.554;7.026;2022-07-29T13:00:35;22.30;82.20
41318;DHT22;27067;51.554;7.026;2022-07-29T13:03:00;22.30;82.00
41318;DHT22;27067;51.554;7.026;2022-07-29T13:05:42;22.30;81.40
41318;DHT22;27067;51.554;7.026;2022-07-29T13:08:14;22.30;82.10
41318;DHT22;27067;51.554;7.026;2022-07-29T13:10:40;22.10;82.20
41318;DHT22;27067;51.554;7.026;2022-07-29T13:13:10;22.30;82.20
41318;DHT22;27067;51.554;7.026;2022-07-29T13:15:36;22.30;81.50
41318;DHT22;27067;51.554;7.026;2022-07-29T13:18:02;22.30;81.90
41318;DHT22;27067;51.554;7.026;2022-07-29T13:20:28;22.30;81.80
41318;DHT22;27067;51.554;7.026;2022-07-29T13:22:57;22.30;81.70
41318;DHT22;27067;51.554;7.026;2022-07-29T13:25:30;22.30;81.00
41318;DHT22;27067;51.554;7.026;2022-07-29T13:27:57;22.30;81.50
41318;DHT22;27067;51.554;7.026;2022-07-29T13:30:23;22.20;81.30
41318;DHT22;27067;51.554;7.026;2022-07-29T13:32:48;22.20;81.10
41318;DHT22;27067;51.554;7.026;2022-07-29T13:35:14;22.20;80.40
41318;DHT22;27067;51.554;7.026;2022-07-29T13:37:40;22.20;80.80
41318;DHT22;27067;51.554;7.026;2022-07-29T13:40:06;22.20;80.60
41318;DHT22;27067;51.554;7.026;2022-07-29T13:42:32;22.20;80.40
41318;DHT22;27067;51.554;7.026;2022-07-29T13:44:59;22.20;79.60
41318;DHT22;27067;51.554;7.026;2022-07-29T13:47:24;22.20;80.10
41318;DHT22;27067;51.554;7.026;2022-07-29T13:49:50;22.20;79.80
41318;DHT22;27067;51.554;7.026;2022-07-29T13:52:16;22.20;79.80
41318;DHT22;27067;51.554;7.026;2022-07-29T13:54:42;22.20;79.10
41318;DHT22;27067;51.554;7.026;2022-07-29T13:57:08;22.20;79.60
41318;DHT22;27067;51.554;7.026;2022-07-29T13:59:35;22.20;79.50
41318;DHT22;27067;51.554;7.026;2022-07-29T14:02:01;22.20;79.50
41318;DHT22;27067;51.554;7.026;2022-07-29T14:04:26;22.40;79.00
41318;DHT22;27067;51.554;7.026;2022-07-29T14:06:52;22.20;79.50
41318;DHT22;27067;51.554;7.026;2022-07-29T14:09:18;22.20;79.50
41318;DHT22;27067;51.554;7.026;2022-07-29T14:11:43;22.20;79.70
41318;DHT22;27067;51.554;7.026;2022-07-29T14:14:09;22.20;79.30
41318;DHT22;27067;51.554;7.026;2022-07-29T14:16:35;22.20;79.80
41318;DHT22;27067;51.554;7.026;2022-07-29T14:19:01;22.20;80.00
41318;DHT22;27067;51.554;7.026;2022-07-29T14:21:27;22.20;80.00
41318;DHT22;27067;51.554;7.026;2022-07-29T14:23:52;22.20;79.60
41318;DHT22;27067;51.554;7.026;2022-07-29T14:26:20;22.20;80.20
41318;DHT22;27067;51.554;7.026;2022-07-29T14:28:46;22.30;80.20
41318;DHT22;27067;51.554;7.026;2022-07-29T14:31:11;22.30;80.20
41318;DHT22;27067;51.554;7.026;2022-07-29T14:33:37;22.30;79.80
41318;DHT22;27067;51.554;7.026;2022-07-29T14:36:02;22.30;80.40
41318;DHT22;27067;51.554;7.026;2022-07-29T14:38:28;22.30;80.30
41318;DHT22;27067;51.554;7.026;2022-07-29T14:40:53;22.30;80.50
41318;DHT22;27067;51.554;7.026;2022-07-29T14:43:19;22.30;80.40
41318;DHT22;27067;51.554;7.026;2022-07-29T14:45:44;22.20;79.80
41318;DHT22;27067;51.554;7.026;2022-07-29T14:48:10;22.30;80.50
41318;DHT22;27067;51.554;7.026;2022-07-29T14:50:36;22.30;80.50
41318;DHT22;27067;51.554;7.026;2022-07-29T14:53:02;22.30;80.50
41318;DHT22;27067;51.554;7.026;2022-07-29T14:55:28;22.30;80.00
41318;DHT22;27067;51.554;7.026;2022-07-29T14:57:53;22.30;80.50
41318;DHT22;27067;51.554;7.026;2022-07-29T15:00:19;22.30;80.50
41318;DHT22;27067;51.554;7.026;2022-07-29T15:02:46;22.30;81.10
41318;DHT22;27067;51.554;7.026;2022-07-29T15:05:12;22.30;80.10
41318;DHT22;27067;51.554;7.026;2022-07-29T15:07:37;22.20;81.20
41318;DHT22;27067;51.554;7.026;2022-07-29T15:10:03;22.30;80.70
41318;DHT22;27067;51.554;7.026;2022-07-29T15:12:29;22.30;80.70
41318;DHT22;27067;51.554;7.026;2022-07-29T15:14:55;22.30;80.30
41318;DHT22;27067;51.554;7.026;2022-07-29T15:17:21;22.30;80.80
41318;DHT22;27067;51.554;7.026;2022-07-29T15:19:47;22.40;80.80
41318;DHT22;27067;51.554;7.026;2022-07-29T15:22:12;22.30;80.70
41318;DHT22;27067;51.554;7.026;2022-07-29T15:24:37;22.30;80.20
41318;DHT22;27067;51.554;7.026;2022-07-29T15:27:03;22.30;80.90
41318;DHT22;27067;51.554;7.026;2022-07-29T15:29:28;22.30;80.60
41318;DHT22;27067;51.554;7.026;2022-07-29T15:31:54;22.30;80.60
41318;DHT22;27067;51.554;7.026;2022-07-29T15:34:20;22.30;80.10
41318;DHT22;27067;51.554;7.026;2022-07-29T15:36:46;22.30;80.70
41318;DHT22;27067;51.554;7.026;2022-07-29T15:39:11;22.30;80.60
41318;DHT22;27067;51.554;7.026;2022-07-29T15:41:37;22.30;80.50
41318;DHT22;27067;51.554;7.026;2022-07-29T15:44:02;22.30;80.00
41318;DHT22;27067;51.554;7.026;2022-07-29T15:46:28;22.30;80.50
41318;DHT22;27067;51.554;7.026;2022-07-29T15:49:12;22.40;80.50
41318;DHT22;27067;51.554;7.026;2022-07-29T15:51:38;22.30;80.40
41318;DHT22;27067;51.554;7.026;2022-07-29T15:54:03;22.30;79.90
41318;DHT22;27067;51.554;7.026;2022-07-29T15:56:29;22.30;80.50
41318;DHT22;27067;51.554;7.026;2022-07-29T15:58:55;22.30;80.50
41318;DHT22;27067;51.554;7.026;2022-07-29T16:01:20;22.30;80.50
41318;DHT22;27067;51.554;7.026;2022-07-29T16:03:46;22.40;80.00
41318;DHT22;27067;51.554;7.026;2022-07-29T16:06:11;22.30;80.50
41318;DHT22;27067;51.554;7.026;2022-07-29T16:08:37;22.30;80.50
41318;DHT22;27067;51.554;7.026;2022-07-29T16:11:03;22.30;80.40
41318;DHT22;27067;51.554;7.026;2022-07-29T16:13:28;22.30;79.80
41318;DHT22;27067;51.554;7.026;2022-07-29T16:15:54;22.30;80.40